sensor_id;sensor_type;location;lat;lon;timestamp;pressure;altitude;pressure_sealevel;temperature;humidity
5053;BME280;2545;50.892;5.740;2023-03-11T00:00:35;56414.06;;;-142.21;100.00
5053;BME280;2545;50.892;5.740;2023-03-11T00:03:03;56376.81;;;-142.21;100.00
5053;BME280;2545;50.892;5.740;2023-03-11T00:05:31;56418.00;;;-142.21;100.00
5053;BME280;2545;50.892;5.740;2023-03-11T00:07:58;56394.47;;;-142.21;100.00
5053;BME280;2545;50.892;5.740;2023-03-11T00:10:43;56372.91;;;-142.21;100.00
5053;BME280;2545;50.892;5.740;2023-03-11T00:13:12;56423.88;;;-142.21;100.00
5053;BME280;2545;50.892;5.740;2023-03-11T00:15:40;56414.06;;;-142.21;100.00
5053;BME280;2545;50.892;5.740;2023-03-11T00:18:06;56429.75;;;-142.21;100.00
5053;BME280;2545;50.892;5.740;2023-03-11T00:20:33;56382.69;;;-142.21;100.00
5053;BME280;2545;50.892;5.740;2023-03-11T00:22:59;56427.81;;;-142.21;100.00
5053;BME280;2545;50.892;5.740;2023-03-11T00:25:27;56378.78;;;-142.21;100.00
5053;BME280;2545;50.892;5.740;2023-03-11T00:27:53;56398.38;;;-142.21;100.00
5053;BME280;2545;50.892;5.740;2023-03-11T00:30:19;56392.50;;;-142.21;100.00
5053;BME280;2545;50.892;5.740;2023-03-11T00:32:49;56425.84;;;-142.21;100.00
5053;BME280;2545;50.892;5.740;2023-03-11T00:35:19;56368.97;;;-142.21;100.00
5053;BME280;2545;50.892;5.740;2023-03-11T00:37:46;56382.69;;;-142.21;100.00
5053;BME280;2545;50.892;5.740;2023-03-11T00:40:13;56412.13;;;-142.21;100.00
5053;BME280;2545;50.892;5.740;2023-03-11T00:42:39;56406.22;;;-142.21;100.00
5053;BME280;2545;50.892;5.740;2023-03-11T00:45:05;56390.53;;;-142.21;100.00
5053;BME280;2545;50.892;5.740;2023-03-11T00:47:30;56402.31;;;-142.21;100.00
5053;BME280;2545;50.892;5.740;2023-03-11T00:49:55;56412.13;;;-142.21;100.00
5053;BME280;2545;50.892;5.740;2023-03-11T00:52:21;56396.44;;;-142.21;100.00
5053;BME280;2545;50.892;5.740;2023-03-11T00:54:46;56392.50;;;-142.21;100.00
5053;BME280;2545;50.892;5.740;2023-03-11T00:57:11;56394.47;;;-142.21;100.00
5053;BME280;2545;50.892;5.740;2023-03-11T00:59:37;56412.13;;;-142.21;100.00
5053;BME280;2545;50.892;5.740;2023-03-11T01:02:02;56382.69;;;-142.21;100.00
5053;BME280;2545;50.892;5.740;2023-03-11T01:04:27;56402.31;;;-142.21;100.00
5053;BME280;2545;50.892;5.740;2023-03-11T01:06:53;56386.63;;;-142.21;100.00
5053;BME280;2545;50.892;5.740;2023-03-11T01:09:18;56398.38;;;-142.21;100.00
5053;BME280;2545;50.892;5.740;2023-03-11T01:11:43;56410.16;;;-142.21;100.00
5053;BME280;2545;50.892;5.740;2023-03-11T01:14:09;56433.69;;;-142.21;100.00
5053;BME280;2545;50.892;5.740;2023-03-11T01:16:34;56408.19;;;-142.21;100.00
5053;BME280;2545;50.892;5.740;2023-03-11T01:18:59;56425.84;;;-142.21;100.00
5053;BME280;2545;50.892;5.740;2023-03-11T01:21:25;56402.31;;;-142.21;100.00
5053;BME280;2545;50.892;5.740;2023-03-11T01:23:50;56370.94;;;-142.21;100.00
5053;BME280;2545;50.892;5.740;2023-03-11T01:26:15;56431.72;;;-142.21;100.00
5053;BME280;2545;50.892;5.740;2023-03-11T01:28:41;56423.88;;;-142.21;100.00
5053;BME280;2545;50.892;5.740;2023-03-11T01:31:08;56402.31;;;-142.21;100.00
5053;BME280;2545;50.892;5.740;2023-03-11T01:33:33;56392.50;;;-142.21;100.00
5053;BME280;2545;50.892;5.740;2023-03-11T01:35:59;56441.53;;;-142.21;100.00
5053;BME280;2545;50.892;5.740;2023-03-11T01:38:24;56461.13;;;-142.21;100.00
5053;BME280;2545;50.892;5.740;2023-03-11T01:40:50;56435.66;;;-142.21;100.00
5053;BME280;2545;50.892;5.740;2023-03-11T01:43:39;56423.88;;;-142.21;100.00
5053;BME280;2545;50.892;5.740;2023-03-11T01:46:24;56388.59;;;-142.21;100.00
5053;BME280;2545;50.892;5.740;2023-03-11T01:48:58;56382.69;;;-142.21;100.00
5053;BME280;2545;50.892;5.740;2023-03-11T01:51:38;56421.91;;;-142.21;100.00
5053;BME280;2545;50.892;5.740;2023-03-11T01:54:07;56431.72;;;-142.21;100.00
5053;BME280;2545;50.892;5.740;2023-03-11T01:56:35;56386.63;;;-142.21;100.00
5053;BME280;2545;50.892;5.740;2023-03-11T01:59:00;56398.38;;;-142.21;100.00
5053;BME280;2545;50.892;5.740;2023-03-11T02:01:26;56423.88;;;-142.21;100.00
5053;BME280;2545;50.892;5.740;2023-03-11T02:03:52;56384.66;;;-142.21;100.00
5053;BME280;2545;50.892;5.740;2023-03-11T02:06:21;56431.72;;;-142.21;100.00
5053;BME280;2545;50.892;5.740;2023-03-11T02:08:47;56421.91;;;-142.21;100.00
5053;BME280;2545;50.892;5.740;2023-03-11T02:11:16;56421.91;;;-142.21;100.00
5053;BME280;2545;50.892;5.740;2023-03-11T02:13:44;56441.53;;;-142.21;100.00
5053;BME280;2545;50.892;5.740;2023-03-11T02:16:10;56425.84;;;-142.21;100.00
5053;BME280;2545;50.892;5.740;2023-03-11T02:18:38;56396.44;;;-142.21;100.00
5053;BME280;2545;50.892;5.740;2023-03-11T02:21:08;56388.59;;;-142.21;100.00
5053;BME280;2545;50.892;5.740;2023-03-11T02:23:49;56376.81;;;-142.21;100.00
5053;BME280;2545;50.892;5.740;2023-03-11T02:26:23;56386.63;;;-142.21;100.00
5053;BME280;2545;50.892;5.740;2023-03-11T02:28:51;56410.16;;;-142.21;100.00
5053;BME280;2545;50.892;5.740;2023-03-11T02:31:17;56398.38;;;-142.21;100.00
5053;BME280;2545;50.892;5.740;2023-03-11T02:33:44;56390.53;;;-142.21;100.00
5053;BME280;2545;50.892;5.740;2023-03-11T02:36:37;56414.06;;;-142.21;100.00
5053;BME280;2545;50.892;5.740;2023-03-11T02:39:03;56416.03;;;-142.21;100.00
5053;BME280;2545;50.892;5.740;2023-03-11T02:41:30;56386.63;;;-142.21;100.00
5053;BME280;2545;50.892;5.740;2023-03-11T02:43:57;56398.38;;;-142.21;100.00
5053;BME280;2545;50.892;5.740;2023-03-11T02:46:23;56398.38;;;-142.21;100.00
5053;BME280;2545;50.892;5.740;2023-03-11T02:48:48;56418.00;;;-142.21;100.00
5053;BME280;2545;50.892;5.740;2023-03-11T02:51:14;56370.94;;;-142.21;100.00
5053;BME280;2545;50.892;5.740;2023-03-11T02:53:50;56402.31;;;-142.21;100.00
5053;BME280;2545;50.892;5.740;2023-03-11T02:56:16;56398.38;;;-142.21;100.00
5053;BME280;2545;50.892;5.740;2023-03-11T02:58:41;56372.91;;;-142.21;100.00
5053;BME280;2545;50.892;5.740;2023-03-11T03:01:07;56388.59;;;-142.21;100.00
5053;BME280;2545;50.892;5.740;2023-03-11T03:03:32;56406.22;;;-142.21;100.00
5053;BME280;2545;50.892;5.740;2023-03-11T03:05:58;56418.00;;;-142.21;100.00
5053;BME280;2545;50.892;5.740;2023-03-11T03:08:23;56410.16;;;-142.21;100.00
5053;BME280;2545;50.892;5.740;2023-03-11T03:10:48;56418.00;;;-142.21;100.00
5053;BME280;2545;50.892;5.740;2023-03-11T03:13:13;56367.00;;;-142.21;100.00
5053;BME280;2545;50.892;5.740;2023-03-11T03:15:39;56423.88;;;-142.21;100.00
5053;BME280;2545;50.892;5.740;2023-03-11T03:18:04;56398.38;;;-142.21;100.00
5053;BME280;2545;50.892;5.740;2023-03-11T03:20:29;56380.75;;;-142.21;100.00
5053;BME280;2545;50.892;5.740;2023-03-11T03:22:55;56425.84;;;-142.21;100.00
5053;BME280;2545;50.892;5.740;2023-03-11T03:25:21;56439.56;;;-142.21;100.00
5053;BME280;2545;50.892;5.740;2023-03-11T03:27:47;56419.97;;;-142.21;100.00
5053;BME280;2545;50.892;5.740;2023-03-11T03:30:13;56390.53;;;-142.21;100.00
5053;BME280;2545;50.892;5.740;2023-03-11T03:32:38;56414.06;;;-142.21;100.00
5053;BME280;2545;50.892;5.740;2023-03-11T03:35:04;56394.47;;;-142.21;100.00
5053;BME280;2545;50.892;5.740;2023-03-11T03:37:33;56414.06;;;-142.21;100.00
5053;BME280;2545;50.892;5.740;2023-03-11T03:39:58;56429.75;;;-142.21;100.00
5053;BME280;2545;50.892;5.740;2023-03-11T03:42:23;56445.44;;;-142.21;100.00
5053;BME280;2545;50.892;5.740;2023-03-11T03:44:50;56402.31;;;-142.21;100.00
5053;BME280;2545;50.892;5.740;2023-03-11T03:47:18;56402.31;;;-142.21;100.00
5053;BME280;2545;50.892;5.740;2023-03-11T03:49:43;56423.88;;;-142.21;100.00
5053;BME280;2545;50.892;5.740;2023-03-11T03:52:08;56418.00;;;-142.21;100.00
5053;BME280;2545;50.892;5.740;2023-03-11T03:54:35;56384.66;;;-142.21;100.00
5053;BME280;2545;50.892;5.740;2023-03-11T03:57:00;56412.13;;;-142.21;100.00
5053;BME280;2545;50.892;5.740;2023-03-11T03:59:26;56414.06;;;-142.21;100.00
5053;BME280;2545;50.892;5.740;2023-03-11T04:01:51;56365.06;;;-142.21;100.00
5053;BME280;2545;50.892;5.740;2023-03-11T04:04:16;56414.06;;;-142.21;100.00
5053;BME280;2545;50.892;5.740;2023-03-11T04:06:42;56368.97;;;-142.21;100.00
5053;BME280;2545;50.892;5.740;2023-03-11T04:09:09;56396.44;;;-142.21;100.00
5053;BME280;2545;50.892;5.740;2023-03-11T04:11:35;56433.69;;;-142.21;100.00
5053;BME280;2545;50.892;5.740;2023-03-11T04:14:01;56406.22;;;-142.21;100.00
5053;BME280;2545;50.892;5.740;2023-03-11T04:16:27;56414.06;;;-142.21;100.00
5053;BME280;2545;50.892;5.740;2023-03-11T04:18:52;56429.75;;;-142.21;100.00
5053;BME280;2545;50.892;5.740;2023-03-11T04:21:18;56414.06;;;-142.21;100.00
5053;BME280;2545;50.892;5.740;2023-03-11T04:23:43;56398.38;;;-142.21;100.00
5053;BME280;2545;50.892;5.740;2023-03-11T04:26:08;56380.75;;;-142.21;100.00
5053;BME280;2545;50.892;5.740;2023-03-11T04:28:34;56406.22;;;-142.21;100.00
5053;BME280;2545;50.892;5.740;2023-03-11T04:30:59;56418.00;;;-142.21;100.00
5053;BME280;2545;50.892;5.740;2023-03-11T04:33:24;56418.00;;;-142.21;100.00
5053;BME280;2545;50.892;5.740;2023-03-11T04:35:50;56400.34;;;-142.21;100.00
5053;BME280;2545;50.892;5.740;2023-03-11T04:38:15;56404.28;;;-142.21;100.00
5053;BME280;2545;50.892;5.740;2023-03-11T04:40:40;56414.06;;;-142.21;100.00
5053;BME280;2545;50.892;5.740;2023-03-11T04:43:06;56402.31;;;-142.21;100.00
5053;BME280;2545;50.892;5.740;2023-03-11T04:45:31;56425.84;;;-142.21;100.00
5053;BME280;2545;50.892;5.740;2023-03-11T04:47:57;56382.69;;;-142.21;100.00
5053;BME280;2545;50.892;5.740;2023-03-11T04:50:22;56414.06;;;-142.21;100.00
5053;BME280;2545;50.892;5.740;2023-03-11T04:52:48;56390.53;;;-142.21;100.00
5053;BME280;2545;50.892;5.740;2023-03-11T04:55:14;56402.31;;;-142.21;100.00
5053;BME280;2545;50.892;5.740;2023-03-11T04:57:40;56414.06;;;-142.21;100.00
5053;BME280;2545;50.892;5.740;2023-03-11T05:00:07;56396.44;;;-142.21;100.00
5053;BME280;2545;50.892;5.740;2023-03-11T05:02:34;56378.78;;;-142.21;100.00
5053;BME280;2545;50.892;5.740;2023-03-11T05:05:00;56414.06;;;-142.21;100.00
5053;BME280;2545;50.892;5.740;2023-03-11T05:07:25;56404.28;;;-142.21;100.00
5053;BME280;2545;50.892;5.740;2023-03-11T05:09:50;56367.00;;;-142.21;100.00
5053;BME280;2545;50.892;5.740;2023-03-11T05:12:16;56433.69;;;-142.21;100.00
5053;BME280;2545;50.892;5.740;2023-03-11T05:14:41;56406.22;;;-142.21;100.00
5053;BME280;2545;50.892;5.740;2023-03-11T05:17:06;56386.63;;;-142.21;100.00
5053;BME280;2545;50.892;5.740;2023-03-11T05:19:32;56406.22;;;-142.21;100.00
5053;BME280;2545;50.892;5.740;2023-03-11T05:22:01;56396.44;;;-142.21;100.00
5053;BME280;2545;50.892;5.740;2023-03-11T05:24:27;56433.69;;;-142.21;100.00
5053;BME280;2545;50.892;5.740;2023-03-11T05:26:53;56414.06;;;-142.21;100.00
5053;BME280;2545;50.892;5.740;2023-03-11T05:29:19;56372.91;;;-142.21;100.00
5053;BME280;2545;50.892;5.740;2023-03-11T05:31:44;56419.97;;;-142.21;100.00
5053;BME280;2545;50.892;5.740;2023-03-11T05:34:11;56419.97;;;-142.21;100.00
5053;BME280;2545;50.892;5.740;2023-03-11T05:36:36;56421.91;;;-142.21;100.00
5053;BME280;2545;50.892;5.740;2023-03-11T05:39:01;56419.97;;;-142.21;100.00
5053;BME280;2545;50.892;5.740;2023-03-11T05:41:27;56433.69;;;-142.21;100.00
5053;BME280;2545;50.892;5.740;2023-03-11T05:43:52;56418.00;;;-142.21;100.00
5053;BME280;2545;50.892;5.740;2023-03-11T05:46:17;56392.50;;;-142.21;100.00
5053;BME280;2545;50.892;5.740;2023-03-11T05:48:44;56418.00;;;-142.21;100.00
5053;BME280;2545;50.892;5.740;2023-03-11T05:51:10;56419.97;;;-142.21;100.00
5053;BME280;2545;50.892;5.740;2023-03-11T05:53:36;56368.97;;;-142.21;100.00
5053;BME280;2545;50.892;5.740;2023-03-11T05:56:03;56380.75;;;-142.21;100.00
5053;BME280;2545;50.892;5.740;2023-03-11T05:58:30;56408.19;;;-142.21;100.00
5053;BME280;2545;50.892;5.740;2023-03-11T06:00:56;56398.38;;;-142.21;100.00
5053;BME280;2545;50.892;5.740;2023-03-11T06:03:22;56425.84;;;-142.21;100.00
5053;BME280;2545;50.892;5.740;2023-03-11T06:05:48;56408.19;;;-142.21;100.00
5053;BME280;2545;50.892;5.740;2023-03-11T06:08:15;56400.34;;;-142.21;100.00
5053;BME280;2545;50.892;5.740;2023-03-11T06:10:41;56429.75;;;-142.21;100.00
5053;BME280;2545;50.892;5.740;2023-03-11T06:13:07;56402.31;;;-142.21;100.00
5053;BME280;2545;50.892;5.740;2023-03-11T06:15:33;56388.59;;;-142.21;100.00
5053;BME280;2545;50.892;5.740;2023-03-11T06:17:59;56410.16;;;-142.21;100.00
5053;BME280;2545;50.892;5.740;2023-03-11T06:20:24;56410.16;;;-142.21;100.00
5053;BME280;2545;50.892;5.740;2023-03-11T06:22:50;56431.72;;;-142.21;100.00
5053;BME280;2545;50.892;5.740;2023-03-11T06:25:16;56439.56;;;-142.21;100.00
5053;BME280;2545;50.892;5.740;2023-03-11T06:27:41;56416.03;;;-142.21;100.00
5053;BME280;2545;50.892;5.740;2023-03-11T06:30:10;56410.16;;;-142.21;100.00
5053;BME280;2545;50.892;5.740;2023-03-11T06:32:35;56433.69;;;-142.21;100.00
5053;BME280;2545;50.892;5.740;2023-03-11T06:35:02;56394.47;;;-142.21;100.00
5053;BME280;2545;50.892;5.740;2023-03-11T06:37:28;56374.84;;;-142.21;100.00
5053;BME280;2545;50.892;5.740;2023-03-11T06:39:53;56406.22;;;-142.21;100.00
5053;BME280;2545;50.892;5.740;2023-03-11T06:42:20;56408.19;;;-142.21;100.00
5053;BME280;2545;50.892;5.740;2023-03-11T06:44:48;56431.72;;;-142.21;100.00
5053;BME280;2545;50.892;5.740;2023-03-11T06:47:13;56406.22;;;-142.21;100.00
5053;BME280;2545;50.892;5.740;2023-03-11T06:49:39;56433.69;;;-142.21;100.00
5053;BME280;2545;50.892;5.740;2023-03-11T06:52:06;56402.31;;;-142.21;100.00
5053;BME280;2545;50.892;5.740;2023-03-11T06:54:32;56406.22;;;-142.21;100.00
5053;BME280;2545;50.892;5.740;2023-03-11T06:56:57;56445.44;;;-142.21;100.00
5053;BME280;2545;50.892;5.740;2023-03-11T06:59:22;56394.47;;;-142.21;100.00
5053;BME280;2545;50.892;5.740;2023-03-11T07:01:48;56408.19;;;-142.21;100.00
5053;BME280;2545;50.892;5.740;2023-03-11T07:04:13;56388.59;;;-142.21;100.00
5053;BME280;2545;50.892;5.740;2023-03-11T07:06:40;56370.94;;;-142.21;100.00
5053;BME280;2545;50.892;5.740;2023-03-11T07:09:06;56404.28;;;-142.21;100.00
5053;BME280;2545;50.892;5.740;2023-03-11T07:11:31;56402.31;;;-142.21;100.00
5053;BME280;2545;50.892;5.740;2023-03-11T07:13:57;56461.13;;;-142.21;100.00
5053;BME280;2545;50.892;5.740;2023-03-11T07:16:24;56402.31;;;-142.21;100.00
5053;BME280;2545;50.892;5.740;2023-03-11T07:18:51;56396.44;;;-142.21;100.00
5053;BME280;2545;50.892;5.740;2023-03-11T07:21:18;56425.84;;;-142.21;100.00
5053;BME280;2545;50.892;5.740;2023-03-11T07:23:45;56406.22;;;-142.21;100.00
5053;BME280;2545;50.892;5.740;2023-03-11T07:26:12;56441.53;;;-142.21;100.00
5053;BME280;2545;50.892;5.740;2023-03-11T07:28:38;56392.50;;;-142.21;100.00
5053;BME280;2545;50.892;5.740;2023-03-11T07:31:14;56425.84;;;-142.21;100.00
5053;BME280;2545;50.892;5.740;2023-03-11T07:33:40;56418.00;;;-142.21;100.00
5053;BME280;2545;50.892;5.740;2023-03-11T07:36:11;56429.75;;;-142.21;100.00
5053;BME280;2545;50.892;5.740;2023-03-11T07:38:37;56398.38;;;-142.21;100.00
5053;BME280;2545;50.892;5.740;2023-03-11T07:41:03;56449.38;;;-142.21;100.00
5053;BME280;2545;50.892;5.740;2023-03-11T07:43:29;56414.06;;;-142.21;100.00
5053;BME280;2545;50.892;5.740;2023-03-11T07:46:02;56419.97;;;-142.21;100.00
5053;BME280;2545;50.892;5.740;2023-03-11T07:48:28;56439.56;;;-142.21;100.00
5053;BME280;2545;50.892;5.740;2023-03-11T07:51:08;56410.16;;;-142.21;100.00
5053;BME280;2545;50.892;5.740;2023-03-11T07:53:34;56386.63;;;-142.21;100.00
5053;BME280;2545;50.892;5.740;2023-03-11T07:56:01;56437.59;;;-142.21;100.00
5053;BME280;2545;50.892;5.740;2023-03-11T07:58:27;56433.69;;;-142.21;100.00
5053;BME280;2545;50.892;5.740;2023-03-11T08:00:53;56414.06;;;-142.21;100.00
5053;BME280;2545;50.892;5.740;2023-03-11T08:03:22;56433.69;;;-142.21;100.00
5053;BME280;2545;50.892;5.740;2023-03-11T08:05:47;56398.38;;;-142.21;100.00
5053;BME280;2545;50.892;5.740;2023-03-11T08:08:12;56459.19;;;-142.21;100.00
5053;BME280;2545;50.892;5.740;2023-03-11T08:10:38;56449.38;;;-142.21;100.00
5053;BME280;2545;50.892;5.740;2023-03-11T08:13:04;56402.31;;;-142.21;100.00
5053;BME280;2545;50.892;5.740;2023-03-11T08:15:29;56386.63;;;-142.21;100.00
5053;BME280;2545;50.892;5.740;2023-03-11T08:17:55;56427.81;;;-142.21;100.00
5053;BME280;2545;50.892;5.740;2023-03-11T08:20:21;56416.03;;;-142.21;100.00
5053;BME280;2545;50.892;5.740;2023-03-11T08:22:46;56447.41;;;-142.21;100.00
5053;BME280;2545;50.892;5.740;2023-03-11T08:25:12;56467.03;;;-142.21;100.00
5053;BME280;2545;50.892;5.740;2023-03-11T08:27:37;56443.50;;;-142.21;100.00
5053;BME280;2545;50.892;5.740;2023-03-11T08:30:04;56406.22;;;-142.21;100.00
5053;BME280;2545;50.892;5.740;2023-03-11T08:32:29;56478.78;;;-142.21;100.00
5053;BME280;2545;50.892;5.740;2023-03-11T08:34:56;56441.53;;;-142.21;100.00
5053;BME280;2545;50.892;5.740;2023-03-11T08:37:21;56394.47;;;-142.21;100.00
5053;BME280;2545;50.892;5.740;2023-03-11T08:39:47;56439.56;;;-142.21;100.00
5053;BME280;2545;50.892;5.740;2023-03-11T08:42:12;56418.00;;;-142.21;100.00
5053;BME280;2545;50.892;5.740;2023-03-11T08:44:38;56419.97;;;-142.21;100.00
5053;BME280;2545;50.892;5.740;2023-03-11T08:47:03;56394.47;;;-142.21;100.00
5053;BME280;2545;50.892;5.740;2023-03-11T08:49:28;56445.44;;;-142.21;100.00
5053;BME280;2545;50.892;5.740;2023-03-11T08:51:54;56435.66;;;-142.21;100.00
5053;BME280;2545;50.892;5.740;2023-03-11T08:54:19;56416.03;;;-142.21;100.00
5053;BME280;2545;50.892;5.740;2023-03-11T08:56:44;56447.41;;;-142.21;100.00
5053;BME280;2545;50.892;5.740;2023-03-11T08:59:12;56382.69;;;-142.21;100.00
5053;BME280;2545;50.892;5.740;2023-03-11T09:01:37;56416.03;;;-142.21;100.00
5053;BME280;2545;50.892;5.740;2023-03-11T09:04:02;56433.69;;;-142.21;100.00
5053;BME280;2545;50.892;5.740;2023-03-11T09:06:28;56453.28;;;-142.21;100.00
5053;BME280;2545;50.892;5.740;2023-03-11T09:08:54;56457.22;;;-142.21;100.00
5053;BME280;2545;50.892;5.740;2023-03-11T09:11:20;56427.81;;;-142.21;98.28
5053;BME280;2545;50.892;5.740;2023-03-11T09:13:47;56418.00;;;-142.21;99.30
5053;BME280;2545;50.892;5.740;2023-03-11T09:16:18;56406.22;;;-142.21;85.97
5053;BME280;2545;50.892;5.740;2023-03-11T09:18:44;56439.56;;;-142.21;85.81
5053;BME280;2545;50.892;5.740;2023-03-11T09:21:10;56400.34;;;-142.21;83.60
5053;BME280;2545;50.892;5.740;2023-03-11T09:23:35;56429.75;;;-142.21;80.20
5053;BME280;2545;50.892;5.740;2023-03-11T09:26:00;56412.13;;;-142.21;80.24
5053;BME280;2545;50.892;5.740;2023-03-11T09:28:26;56421.91;;;-142.21;83.98
5053;BME280;2545;50.892;5.740;2023-03-11T09:30:51;56453.28;;;-142.21;84.18
5053;BME280;2545;50.892;5.740;2023-03-11T09:33:17;56429.75;;;-142.21;78.71
5053;BME280;2545;50.892;5.740;2023-03-11T09:35:42;56394.47;;;-142.21;67.71
5053;BME280;2545;50.892;5.740;2023-03-11T09:38:08;56441.53;;;-142.21;67.92
5053;BME280;2545;50.892;5.740;2023-03-11T09:41:07;56402.31;;;-142.21;73.88
5053;BME280;2545;50.892;5.740;2023-03-11T09:43:56;56414.06;;;-142.21;67.20
5053;BME280;2545;50.892;5.740;2023-03-11T09:46:29;56416.03;;;-142.21;70.18
5053;BME280;2545;50.892;5.740;2023-03-11T09:51:45;56374.84;;;-142.21;68.51
5053;BME280;2545;50.892;5.740;2023-03-11T09:54:12;56370.94;;;-142.21;71.63
5053;BME280;2545;50.892;5.740;2023-03-11T09:56:40;56406.22;;;-142.21;69.76
5053;BME280;2545;50.892;5.740;2023-03-11T09:59:10;56404.28;;;-142.21;61.83
5053;BME280;2545;50.892;5.740;2023-03-11T10:01:41;56410.16;;;-142.21;58.20
5053;BME280;2545;50.892;5.740;2023-03-11T10:04:14;56406.22;;;-142.21;54.34
5053;BME280;2545;50.892;5.740;2023-03-11T10:06:44;56425.84;;;-142.21;47.13
5053;BME280;2545;50.892;5.740;2023-03-11T10:17:45;56349.38;;;-142.21;40.52
5053;BME280;2545;50.892;5.740;2023-03-11T10:20:26;56380.75;;;-142.21;44.30
5053;BME280;2545;50.892;5.740;2023-03-11T10:28:17;56368.97;;;-142.21;42.37
5053;BME280;2545;50.892;5.740;2023-03-11T10:30:54;56363.09;;;-142.21;33.40
5053;BME280;2545;50.892;5.740;2023-03-11T10:35:55;56365.06;;;-142.21;39.82
5053;BME280;2545;50.892;5.740;2023-03-11T10:38:30;56372.91;;;-142.21;37.67
5053;BME280;2545;50.892;5.740;2023-03-11T10:41:00;56341.53;;;-142.21;37.01
5053;BME280;2545;50.892;5.740;2023-03-11T10:43:40;56357.22;;;-142.21;35.87
5053;BME280;2545;50.892;5.740;2023-03-11T10:46:18;56343.47;;;-142.21;38.85
5053;BME280;2545;50.892;5.740;2023-03-11T10:48:44;56314.06;;;-142.21;36.68
5053;BME280;2545;50.892;5.740;2023-03-11T10:51:17;56304.25;;;-142.21;39.51
5053;BME280;2545;50.892;5.740;2023-03-11T10:53:59;56353.28;;;-142.21;39.85
5053;BME280;2545;50.892;5.740;2023-03-11T10:56:35;56367.00;;;-142.21;35.91
5053;BME280;2545;50.892;5.740;2023-03-11T10:59:02;56357.22;;;-142.21;51.91
5053;BME280;2545;50.892;5.740;2023-03-11T11:01:28;56333.69;;;-142.21;49.79
5053;BME280;2545;50.892;5.740;2023-03-11T11:03:56;56372.91;;;-142.21;40.89
5053;BME280;2545;50.892;5.740;2023-03-11T11:06:28;56345.44;;;-142.21;42.07
5053;BME280;2545;50.892;5.740;2023-03-11T11:09:13;56365.06;;;-142.21;52.84
5053;BME280;2545;50.892;5.740;2023-03-11T11:12:01;56347.41;;;-142.21;54.91
5053;BME280;2545;50.892;5.740;2023-03-11T11:17:31;56394.47;;;-142.21;50.24
5053;BME280;2545;50.892;5.740;2023-03-11T11:19:59;56349.38;;;-142.21;37.45
5053;BME280;2545;50.892;5.740;2023-03-11T11:22:25;56378.78;;;-142.21;47.25
5053;BME280;2545;50.892;5.740;2023-03-11T11:24:53;56347.41;;;-142.21;44.60
5053;BME280;2545;50.892;5.740;2023-03-11T11:27:24;56370.94;;;-142.21;43.91
5053;BME280;2545;50.892;5.740;2023-03-11T11:30:16;56368.97;;;-142.21;45.54
5053;BME280;2545;50.892;5.740;2023-03-11T11:32:42;56353.28;;;-142.21;37.63
5053;BME280;2545;50.892;5.740;2023-03-11T11:35:13;56347.41;;;-142.21;40.69
5053;BME280;2545;50.892;5.740;2023-03-11T11:37:42;56347.41;;;-142.21;37.30
5053;BME280;2545;50.892;5.740;2023-03-11T11:42:59;56312.09;;;-142.21;41.92
5053;BME280;2545;50.892;5.740;2023-03-11T11:45:31;56310.13;;;-142.21;45.45
5053;BME280;2545;50.892;5.740;2023-03-11T11:48:02;56341.53;;;-142.21;39.45
5053;BME280;2545;50.892;5.740;2023-03-11T11:50:34;56304.25;;;-142.21;37.43
5053;BME280;2545;50.892;5.740;2023-03-11T11:53:39;56312.09;;;-142.21;37.72
5053;BME280;2545;50.892;5.740;2023-03-11T11:56:06;56339.56;;;-142.21;43.74
5053;BME280;2545;50.892;5.740;2023-03-11T11:58:33;56314.06;;;-142.21;38.02
5053;BME280;2545;50.892;5.740;2023-03-11T12:09:28;56388.59;;;-142.21;49.41
5053;BME280;2545;50.892;5.740;2023-03-11T12:17:08;56343.47;;;-142.21;40.97
5053;BME280;2545;50.892;5.740;2023-03-11T12:19:51;56345.44;;;-142.21;48.06
5053;BME280;2545;50.892;5.740;2023-03-11T12:27:40;56353.28;;;-142.21;41.62
5053;BME280;2545;50.892;5.740;2023-03-11T12:30:13;56304.25;;;-142.21;39.87
5053;BME280;2545;50.892;5.740;2023-03-11T12:32:49;56327.78;;;-142.21;45.39
5053;BME280;2545;50.892;5.740;2023-03-11T12:35:22;56368.97;;;-142.21;56.32
5053;BME280;2545;50.892;5.740;2023-03-11T12:46:13;56351.31;;;-142.21;43.46
5053;BME280;2545;50.892;5.740;2023-03-11T12:56:52;56327.78;;;-142.21;49.13
5053;BME280;2545;50.892;5.740;2023-03-11T13:04:50;56335.63;;;-142.21;38.28
5053;BME280;2545;50.892;5.740;2023-03-11T13:07:40;56343.47;;;-142.21;35.55
5053;BME280;2545;50.892;5.740;2023-03-11T13:12:41;56343.47;;;-142.21;34.56
5053;BME280;2545;50.892;5.740;2023-03-11T13:33:50;56327.78;;;-142.21;49.75
5053;BME280;2545;50.892;5.740;2023-03-11T13:36:23;56339.56;;;-142.21;50.35
5053;BME280;2545;50.892;5.740;2023-03-11T13:39:13;56343.47;;;-142.21;55.82
5053;BME280;2545;50.892;5.740;2023-03-11T13:41:43;56353.28;;;-142.21;61.54
5053;BME280;2545;50.892;5.740;2023-03-11T13:44:21;56353.28;;;-142.21;57.62
5053;BME280;2545;50.892;5.740;2023-03-11T13:47:35;56347.41;;;-142.21;56.95
5053;BME280;2545;50.892;5.740;2023-03-11T13:52:32;56319.94;;;-142.21;41.60
5053;BME280;2545;50.892;5.740;2023-03-11T13:55:05;56353.28;;;-142.21;35.15
5053;BME280;2545;50.892;5.740;2023-03-11T13:57:33;56296.41;;;-142.21;33.67
5053;BME280;2545;50.892;5.740;2023-03-11T14:00:20;56308.19;;;-142.21;29.78
5053;BME280;2545;50.892;5.740;2023-03-11T14:02:52;56272.88;;;-142.21;33.23
5053;BME280;2545;50.892;5.740;2023-03-11T14:05:42;56267.00;;;-142.21;36.16
5053;BME280;2545;50.892;5.740;2023-03-11T14:08:20;56296.41;;;-142.21;31.47
5053;BME280;2545;50.892;5.740;2023-03-11T14:11:00;56261.13;;;-142.21;30.64
5053;BME280;2545;50.892;5.740;2023-03-11T14:13:32;56282.69;;;-142.21;29.71
5053;BME280;2545;50.892;5.740;2023-03-11T14:16:04;56300.34;;;-142.21;39.07
5053;BME280;2545;50.892;5.740;2023-03-11T14:18:37;56255.22;;;-142.21;36.05
5053;BME280;2545;50.892;5.740;2023-03-11T14:21:06;56312.09;;;-142.21;32.62
5053;BME280;2545;50.892;5.740;2023-03-11T14:23:39;56288.56;;;-142.21;45.58
5053;BME280;2545;50.892;5.740;2023-03-11T14:26:08;56296.41;;;-142.21;33.18
5053;BME280;2545;50.892;5.740;2023-03-11T14:28:40;56312.09;;;-142.21;48.15